createdAt,value
2017-03-08T00:00:36.363Z,85.54
2017-03-08T00:01:47.053Z,85.64
2017-03-08T00:02:57.755Z,85.17
2017-03-08T00:04:08.463Z,85.36
2017-03-08T00:05:19.167Z,85.78
2017-03-08T00:06:29.883Z,85.07
2017-03-08T00:07:40.184Z,85.17
2017-03-08T00:08:50.922Z,85.07
2017-03-08T00:10:01.233Z,85.22
2017-03-08T00:11:11.950Z,85.22
2017-03-08T00:12:22.671Z,85.36
2017-03-08T00:13:33.375Z,85.26
2017-03-08T00:14:43.694Z,85.6
2017-03-08T00:15:54.401Z,84.88
2017-03-08T00:17:05.122Z,85.13
2017-03-08T00:18:15.804Z,85.36
2017-03-08T00:19:26.511Z,84.79
2017-03-08T00:20:36.817Z,85.31
2017-03-08T00:21:47.498Z,85.13
2017-03-08T00:22:58.207Z,85.13
2017-03-08T00:24:08.916Z,84.94
2017-03-08T00:25:19.617Z,84.94
2017-03-08T00:26:29.923Z,84.94
2017-03-08T00:27:40.624Z,85.31
2017-03-08T00:28:51.334Z,84.84
2017-03-08T00:30:01.633Z,84.47
2017-03-08T00:31:12.351Z,84.56
2017-03-08T00:32:23.058Z,84.69
2017-03-08T00:33:33.764Z,84.65
2017-03-08T00:34:44.472Z,84.84
2017-03-08T00:35:55.154Z,84.6
2017-03-08T00:37:05.853Z,84.65
2017-03-08T00:38:16.544Z,85.13
2017-03-08T00:39:27.262Z,84.94
2017-03-08T00:40:37.979Z,84.75
2017-03-08T00:41:48.666Z,84.37
2017-03-08T00:42:59.368Z,84.94
2017-03-08T00:44:10.077Z,84.94
2017-03-08T00:45:20.788Z,85.22
2017-03-08T00:46:31.488Z,85.13
2017-03-08T00:47:42.196Z,85.22
2017-03-08T00:48:52.896Z,85.13
2017-03-08T00:50:03.597Z,85.6
2017-03-08T00:51:14.309Z,85.6
2017-03-08T00:52:24.601Z,85.6
2017-03-08T00:53:35.322Z,85.6
2017-03-08T00:54:46.018Z,85.41
2017-03-08T00:55:56.739Z,85.6
2017-03-08T00:57:07.444Z,85.78
2017-03-08T00:58:18.154Z,84.94
2017-03-08T00:59:28.454Z,85.6
2017-03-08T01:00:39.164Z,85.6
2017-03-08T01:01:49.875Z,85.69
2017-03-08T01:03:00.574Z,85.69
2017-03-08T01:04:11.273Z,85.22
2017-03-08T01:05:22.000Z,85.31
2017-03-08T01:06:32.689Z,85.03
2017-03-08T01:07:42.999Z,84.84
2017-03-08T01:08:53.723Z,84.65
2017-03-08T01:10:04.439Z,84.94
2017-03-08T01:11:14.752Z,84.94
2017-03-08T01:12:25.452Z,84.09
2017-03-08T01:13:36.168Z,83.61
2017-03-08T01:14:46.916Z,83.33
2017-03-08T01:15:57.630Z,83.52
2017-03-08T01:17:08.323Z,83.61
2017-03-08T01:18:19.052Z,83.61
2017-03-08T01:19:29.749Z,83.8
2017-03-08T01:20:40.451Z,83.61
2017-03-08T01:21:50.746Z,83.33
2017-03-08T01:23:01.489Z,82.86
2017-03-08T01:24:12.183Z,83.05
2017-03-08T01:25:22.499Z,82.76
2017-03-08T01:26:33.199Z,82.67
2017-03-08T01:27:43.899Z,82.95
2017-03-08T01:28:54.602Z,82.86
2017-03-08T01:30:04.894Z,82.95
2017-03-08T01:31:15.587Z,82.48
2017-03-08T01:32:26.308Z,82.76
2017-03-08T01:33:37.019Z,82.39
2017-03-08T01:34:47.315Z,82.86
2017-03-08T01:35:58.017Z,82.95
2017-03-08T01:37:08.328Z,82.86
2017-03-08T01:38:18.241Z,82.86
2017-03-08T01:39:28.947Z,82.76
2017-03-08T01:40:39.649Z,82.76
2017-03-08T01:41:50.335Z,82.86
2017-03-08T01:43:00.663Z,82.76
2017-03-08T01:44:11.366Z,82.86
2017-03-08T01:45:22.086Z,83.43
2017-03-08T01:46:32.772Z,83.43
2017-03-08T01:47:43.474Z,83.52
2017-03-08T01:48:53.788Z,83.61
2017-03-08T01:50:04.494Z,83.33
2017-03-08T01:51:15.204Z,82.76
2017-03-08T01:52:25.114Z,82.76
2017-03-08T01:53:35.827Z,82.2
2017-03-08T01:54:46.539Z,82.2
2017-03-08T01:55:56.873Z,81.54
2017-03-08T01:57:07.567Z,82.01
2017-03-08T01:58:17.884Z,81.26
2017-03-08T01:59:28.571Z,81.45
2017-03-08T02:00:39.283Z,81.07
2017-03-08T02:01:49.596Z,80.98
2017-03-08T02:03:00.297Z,80.88
2017-03-08T02:04:10.991Z,80.79
2017-03-08T02:05:21.285Z,80.6
2017-03-08T02:06:31.984Z,80.04
2017-03-08T02:07:42.695Z,79.94
2017-03-08T02:08:53.390Z,80.13
2017-03-08T02:10:04.098Z,80.04
2017-03-08T02:11:14.447Z,79.85
2017-03-08T02:12:25.154Z,79.94
2017-03-08T02:13:35.845Z,80.13
2017-03-08T02:14:46.540Z,79.94
2017-03-08T02:15:57.246Z,79.75
2017-03-08T02:17:07.949Z,80.13
2017-03-08T02:18:18.638Z,80.04
2017-03-08T02:19:29.349Z,80.13
2017-03-08T02:20:39.650Z,80.51
2017-03-08T02:21:50.344Z,80.69
2017-03-08T02:23:01.079Z,80.88
2017-03-08T02:24:11.806Z,81.07
2017-03-08T02:25:21.723Z,81.54
2017-03-08T02:26:32.439Z,81.07
2017-03-08T02:27:43.125Z,81.45
2017-03-08T02:28:53.822Z,81.63
2017-03-08T02:30:04.549Z,81.63
2017-03-08T02:31:15.263Z,81.63
2017-03-08T02:32:25.554Z,81.73
2017-03-08T02:33:35.844Z,81.73
2017-03-08T02:34:46.569Z,81.63
2017-03-08T02:35:57.293Z,81.45
2017-03-08T02:37:08.017Z,81.54
2017-03-08T02:38:18.324Z,81.63
2017-03-08T02:39:28.631Z,82.1
2017-03-08T02:40:39.319Z,82.48
2017-03-08T02:41:50.048Z,82.2
2017-03-08T02:43:00.804Z,82.39
2017-03-08T02:44:11.099Z,82.67
2017-03-08T02:45:21.806Z,82.86
2017-03-08T02:46:32.542Z,82.76
2017-03-08T02:47:43.264Z,82.29
2017-03-08T02:48:53.994Z,82.39
2017-03-08T02:50:04.680Z,81.63
2017-03-08T02:51:14.579Z,82.2
2017-03-08T02:52:25.298Z,83.05
2017-03-08T02:53:35.596Z,82.86
2017-03-08T02:54:46.307Z,82.58
2017-03-08T02:57:24.742Z,81.92
2017-03-08T02:58:35.433Z,82.67
2017-03-08T02:59:45.719Z,82.58
2017-03-08T03:00:56.041Z,82.1
2017-03-08T03:02:06.848Z,82.67
2017-03-08T03:03:17.172Z,82.95
2017-03-08T03:04:27.873Z,82.39
2017-03-08T03:05:38.573Z,82.29
2017-03-08T03:06:49.270Z,82.76
2017-03-08T03:08:02.416Z,83.9
2017-03-08T03:09:13.120Z,82.86
2017-03-08T03:10:23.822Z,82.67
2017-03-08T03:11:34.521Z,82.1
2017-03-08T03:12:44.837Z,82.2
2017-03-08T03:13:55.894Z,81.82
2017-03-08T03:15:06.604Z,82.1
2017-03-08T03:16:16.922Z,82.29
2017-03-08T03:17:27.627Z,82.58
2017-03-08T03:18:37.955Z,83.33
2017-03-08T03:19:48.376Z,83.8
2017-03-08T03:20:59.078Z,83.9
2017-03-08T03:22:09.388Z,84.47
2017-03-08T03:23:19.707Z,84.47
2017-03-08T03:24:30.420Z,84.37
2017-03-08T03:25:44.050Z,84.47
2017-03-08T03:26:54.740Z,84.47
2017-03-08T03:28:05.054Z,84.84
2017-03-08T03:29:15.770Z,84.75
2017-03-08T03:30:26.075Z,84.56
2017-03-08T03:31:36.875Z,84.09
2017-03-08T03:32:47.188Z,84.56
2017-03-08T03:33:57.492Z,85.6
2017-03-08T03:35:08.211Z,85.13
2017-03-08T03:36:18.932Z,84.75
2017-03-08T03:37:29.933Z,84.47
2017-03-08T03:38:40.640Z,85.41
2017-03-08T03:39:51.357Z,85.22
2017-03-08T03:41:02.067Z,85.41
2017-03-08T03:42:12.758Z,84.37
2017-03-08T03:43:23.562Z,83.71
2017-03-08T03:44:34.255Z,83.99
2017-03-08T03:45:44.959Z,83.8
2017-03-08T03:46:55.666Z,83.71
2017-03-08T03:48:05.974Z,83.99
2017-03-08T03:49:16.682Z,84.28
2017-03-08T03:50:27.390Z,83.71
2017-03-08T03:51:38.098Z,84.37
2017-03-08T03:52:48.833Z,84.28
2017-03-08T03:53:59.521Z,85.13
2017-03-08T03:55:10.213Z,85.31
2017-03-08T03:56:20.518Z,84.47
2017-03-08T03:57:30.840Z,83.61
2017-03-08T03:58:41.550Z,83.61
2017-03-08T03:59:52.261Z,83.61
2017-03-08T04:01:02.952Z,83.52
2017-03-08T04:02:13.664Z,83.52
2017-03-08T04:03:24.387Z,84.09
2017-03-08T04:04:35.087Z,83.52
2017-03-08T04:05:45.793Z,84.18
2017-03-08T04:06:56.113Z,83.9
2017-03-08T04:08:06.417Z,84.18
2017-03-08T04:09:16.730Z,84.47
2017-03-08T04:10:27.439Z,84.28
2017-03-08T04:11:38.127Z,84.09
2017-03-08T04:12:48.435Z,84.37
2017-03-08T04:13:58.738Z,84.28
2017-03-08T04:15:09.433Z,84.75
2017-03-08T04:16:19.723Z,84.94
2017-03-08T04:17:30.423Z,84.37
2017-03-08T04:18:41.146Z,84.56
2017-03-08T04:19:51.834Z,84.56
2017-03-08T04:21:02.143Z,84.75
2017-03-08T04:22:12.843Z,84.56
2017-03-08T04:23:23.552Z,84.37
2017-03-08T04:24:33.868Z,84.56
2017-03-08T04:25:44.586Z,84.56
2017-03-08T04:26:55.292Z,85.13
2017-03-08T04:28:05.998Z,84.94
2017-03-08T04:29:16.693Z,85.13
2017-03-08T04:30:27.051Z,84.65
2017-03-08T04:31:37.753Z,84.47
2017-03-08T04:32:48.441Z,84.09
2017-03-08T04:33:59.144Z,85.03
2017-03-08T04:35:09.854Z,84.94
2017-03-08T04:36:20.549Z,84.84
2017-03-08T04:37:31.259Z,85.31
2017-03-08T04:38:41.580Z,85.41
2017-03-08T04:39:52.261Z,84.75
2017-03-08T04:41:02.995Z,85.03
2017-03-08T04:42:13.693Z,85.03
2017-03-08T04:43:24.410Z,85.41
2017-03-08T04:44:35.126Z,84.84
2017-03-08T04:45:45.434Z,84.84
2017-03-08T04:46:56.140Z,84.56
2017-03-08T04:48:06.453Z,84.84
2017-03-08T04:49:17.168Z,84.56
2017-03-08T04:50:27.463Z,84.28
2017-03-08T04:51:38.161Z,84.56
2017-03-08T04:52:48.865Z,84.75
2017-03-08T04:53:59.559Z,84.56
2017-03-08T04:55:10.259Z,84.28
2017-03-08T04:56:20.579Z,83.99
2017-03-08T04:57:30.925Z,84.56
2017-03-08T04:58:41.638Z,84.56
2017-03-08T04:59:52.338Z,84.56
2017-03-08T05:01:02.644Z,84.75
2017-03-08T05:02:13.345Z,84.94
2017-03-08T05:03:24.042Z,84.47
2017-03-08T05:04:34.741Z,84.47
2017-03-08T05:05:45.054Z,83.71
2017-03-08T05:06:55.752Z,84.94
2017-03-08T05:08:06.060Z,85.31
2017-03-08T05:09:16.766Z,85.03
2017-03-08T05:10:27.079Z,84.65
2017-03-08T05:11:37.798Z,83.61
2017-03-08T05:12:48.122Z,83.52
2017-03-08T05:13:58.830Z,83.71
2017-03-08T05:15:09.546Z,83.71
2017-03-08T05:16:20.263Z,83.33
2017-03-08T05:17:30.566Z,83.71
2017-03-08T05:18:41.280Z,83.99
2017-03-08T05:19:51.993Z,82.86
2017-03-08T05:21:02.723Z,82.86
2017-03-08T05:22:13.420Z,82.29
2017-03-08T05:23:24.114Z,82.1
2017-03-08T05:24:34.825Z,81.73
2017-03-08T05:25:45.529Z,81.73
2017-03-08T05:26:56.262Z,81.82
2017-03-08T05:28:06.974Z,82.39
2017-03-08T05:29:17.679Z,82.95
2017-03-08T05:30:28.392Z,82.86
2017-03-08T05:31:39.098Z,82.67
2017-03-08T05:32:49.793Z,82.67
2017-03-08T05:34:00.509Z,82.76
2017-03-08T05:35:11.205Z,82.39
2017-03-08T05:36:21.530Z,82.76
2017-03-08T05:37:32.231Z,82.67
2017-03-08T05:38:42.936Z,82.95
2017-03-08T05:39:53.637Z,82.82
2017-03-08T05:41:04.328Z,82.95
2017-03-08T05:42:15.053Z,82.92
2017-03-08T05:43:25.348Z,82.73
2017-03-08T05:44:36.042Z,82.92
2017-03-08T05:45:46.735Z,82.82
2017-03-08T05:46:57.437Z,83.29
2017-03-08T05:48:08.136Z,83.39
2017-03-08T05:49:18.850Z,83.48
2017-03-08T05:50:29.173Z,83.67
2017-03-08T05:51:39.888Z,83.76
2017-03-08T05:52:50.590Z,84.23
2017-03-08T05:54:01.284Z,84.42
2017-03-08T05:55:11.610Z,83.86
2017-03-08T05:56:22.311Z,84.14
2017-03-08T05:57:33.009Z,84.23
2017-03-08T05:58:43.717Z,84.42
2017-03-08T05:59:54.419Z,84.33
2017-03-08T06:01:04.723Z,84.42
2017-03-08T06:02:15.442Z,84.42
2017-03-08T06:03:26.156Z,83.76
2017-03-08T06:04:36.844Z,84.23
2017-03-08T06:05:47.551Z,84.23
2017-03-08T06:06:58.253Z,84.23
2017-03-08T06:08:08.945Z,84.23
2017-03-08T06:09:19.640Z,84.42
2017-03-08T06:10:30.339Z,84.14
2017-03-08T06:11:40.671Z,84.61
2017-03-08T06:12:51.371Z,84.8
2017-03-08T06:14:02.071Z,84.23
2017-03-08T06:15:12.790Z,84.42
2017-03-08T06:16:23.507Z,84.23
2017-03-08T06:17:34.209Z,84.52
2017-03-08T06:18:44.514Z,84.52
2017-03-08T06:19:55.207Z,84.42
2017-03-08T06:21:05.916Z,84.33
2017-03-08T06:22:16.626Z,84.23
2017-03-08T06:23:27.340Z,84.42
2017-03-08T06:24:38.025Z,84.23
2017-03-08T06:25:48.739Z,83.67
2017-03-08T06:26:58.641Z,83.76
2017-03-08T06:28:09.331Z,83.76
2017-03-08T06:29:20.040Z,84.33
2017-03-08T06:30:30.752Z,84.42
2017-03-08T06:31:41.091Z,83.67
2017-03-08T06:32:51.776Z,84.33
2017-03-08T06:34:02.509Z,84.52
2017-03-08T06:35:13.196Z,84.42
2017-03-08T06:36:23.903Z,84.05
2017-03-08T06:37:34.624Z,84.23
2017-03-08T06:38:45.344Z,83.95
2017-03-08T06:39:56.061Z,84.33
2017-03-08T06:41:06.765Z,84.23
2017-03-08T06:42:17.057Z,84.52
2017-03-08T06:43:27.812Z,84.52
2017-03-08T06:44:38.520Z,84.61
2017-03-08T06:45:49.252Z,84.89
2017-03-08T06:46:59.953Z,85.17
2017-03-08T06:48:10.663Z,84.99
2017-03-08T06:49:20.962Z,85.36
2017-03-08T06:50:31.259Z,85.55
2017-03-08T06:51:41.966Z,85.64
2017-03-08T06:52:52.292Z,85.55
2017-03-08T06:54:02.641Z,85.55
2017-03-08T06:55:13.343Z,85.27
2017-03-08T06:56:24.076Z,84.89
2017-03-08T06:57:34.379Z,84.61
2017-03-08T06:58:45.091Z,84.23
2017-03-08T06:59:55.409Z,83.76
2017-03-08T07:01:05.728Z,82.63
2017-03-08T07:02:16.436Z,82.44
2017-03-08T07:03:27.136Z,82.44
2017-03-08T07:04:37.425Z,81.78
2017-03-08T07:05:47.746Z,81.69
2017-03-08T07:06:58.465Z,80.93
2017-03-08T07:08:09.184Z,81.88
2017-03-08T07:09:19.885Z,81.69
2017-03-08T07:10:30.577Z,81.5
2017-03-08T07:11:40.878Z,81.22
2017-03-08T07:12:51.572Z,81.03
2017-03-08T07:14:02.282Z,81.07
2017-03-08T07:15:12.988Z,81.22
2017-03-08T07:16:23.716Z,81.03
2017-03-08T07:17:34.423Z,81.12
2017-03-08T07:18:45.149Z,80.74
2017-03-08T07:19:55.435Z,81.22
2017-03-08T07:21:06.154Z,81.12
2017-03-08T07:22:16.869Z,81.22
2017-03-08T07:23:26.772Z,80.88
2017-03-08T07:24:37.461Z,80.88
2017-03-08T07:25:47.766Z,81.41
2017-03-08T07:26:58.066Z,81.45
2017-03-08T07:28:08.379Z,81.03
2017-03-08T07:29:18.688Z,81.26
2017-03-08T07:30:29.394Z,80.88
2017-03-08T07:31:39.691Z,80.32
2017-03-08T07:32:50.390Z,80.51
2017-03-08T07:34:00.691Z,80.22
2017-03-08T07:35:11.409Z,80.79
2017-03-08T07:36:22.119Z,80.79
2017-03-08T07:37:32.819Z,80.51
2017-03-08T07:38:43.535Z,80.32
2017-03-08T07:39:54.236Z,81.07
2017-03-08T07:41:04.939Z,80.88
2017-03-08T07:42:15.645Z,80.6
2017-03-08T07:43:25.576Z,80.41
2017-03-08T07:44:36.339Z,80.51
2017-03-08T07:45:47.081Z,80.32
2017-03-08T07:46:57.420Z,80.32
2017-03-08T07:48:08.113Z,80.51
2017-03-08T07:49:18.817Z,79.85
2017-03-08T07:50:28.752Z,79.85
2017-03-08T07:51:39.460Z,79.75
2017-03-08T07:52:50.162Z,79.66
2017-03-08T07:54:00.492Z,79.37
2017-03-08T07:55:11.186Z,79.66
2017-03-08T07:56:21.091Z,79.75
2017-03-08T07:57:31.810Z,79.66
2017-03-08T07:58:42.546Z,79.56
2017-03-08T07:59:53.261Z,79.85
2017-03-08T08:01:03.945Z,79.66
2017-03-08T08:02:14.253Z,79.66
2017-03-08T08:03:24.546Z,79.94
2017-03-08T08:04:34.846Z,79.28
2017-03-08T08:05:45.542Z,79.28
2017-03-08T08:06:56.253Z,78.9
2017-03-08T08:08:06.171Z,79.37
2017-03-08T08:09:16.501Z,79.09
2017-03-08T08:10:27.204Z,79.19
2017-03-08T08:11:37.528Z,78.71
2017-03-08T08:12:47.830Z,78.62
2017-03-08T08:13:58.539Z,78.43
2017-03-08T08:15:09.235Z,78.52
2017-03-08T08:16:19.939Z,78.52
2017-03-08T08:17:30.675Z,77.86
2017-03-08T08:18:40.981Z,78.15
2017-03-08T08:19:51.676Z,77.96
2017-03-08T08:21:02.377Z,78.15
2017-03-08T08:22:13.089Z,78.24
2017-03-08T08:23:23.785Z,77.77
2017-03-08T08:24:34.492Z,77.67
2017-03-08T08:25:45.198Z,77.49
2017-03-08T08:26:55.894Z,78.05
2017-03-08T08:28:06.612Z,77.39
2017-03-08T08:29:16.928Z,76.92
2017-03-08T08:30:27.228Z,76.73
2017-03-08T08:31:37.544Z,77.11
2017-03-08T08:32:48.274Z,77.39
2017-03-08T08:33:58.970Z,76.73
2017-03-08T08:35:09.734Z,76.54
2017-03-08T08:36:20.027Z,76.73
2017-03-08T08:37:30.722Z,76.92
2017-03-08T08:38:41.444Z,75.98
2017-03-08T08:39:52.190Z,76.17
2017-03-08T08:41:02.881Z,76.17
2017-03-08T08:42:13.578Z,76.17
2017-03-08T08:43:24.286Z,75.6
2017-03-08T08:44:34.209Z,75.79
2017-03-08T08:45:44.525Z,75.89
2017-03-08T08:46:55.208Z,75.79
2017-03-08T08:48:05.916Z,75.79
2017-03-08T08:49:16.240Z,75.79
2017-03-08T08:50:26.963Z,75.66
2017-03-08T08:51:37.657Z,75.51
2017-03-08T08:52:48.363Z,76.22
2017-03-08T08:53:59.056Z,76.04
2017-03-08T08:55:09.759Z,75.75
2017-03-08T08:56:20.474Z,76.22
2017-03-08T08:57:31.170Z,76.13
2017-03-08T08:58:41.472Z,76.41
2017-03-08T08:59:52.171Z,76.41
2017-03-08T09:01:02.862Z,76.51
2017-03-08T09:02:13.567Z,76.51
2017-03-08T09:03:23.896Z,76.41
2017-03-08T09:04:34.594Z,76.32
2017-03-08T09:05:45.304Z,76.22
2017-03-08T09:06:56.007Z,76.22
2017-03-08T09:08:06.703Z,76.07
2017-03-08T09:09:17.412Z,76.35
2017-03-08T09:10:28.111Z,76.45
2017-03-08T09:11:38.434Z,76.54
2017-03-08T09:12:49.136Z,76.17
2017-03-08T09:13:59.830Z,77.2
2017-03-08T09:15:09.732Z,77.11
2017-03-08T09:16:20.426Z,76.82
2017-03-08T09:17:30.754Z,75.89
2017-03-08T09:18:41.446Z,75.6
2017-03-08T09:19:52.170Z,75.32
2017-03-08T09:21:02.856Z,75.64
2017-03-08T09:22:13.159Z,75.45
2017-03-08T09:23:23.875Z,75.54
2017-03-08T09:24:34.626Z,73.85
2017-03-08T09:25:45.332Z,73.38
2017-03-08T09:26:56.048Z,73
2017-03-08T09:28:06.743Z,72.81
2017-03-08T09:29:17.468Z,73
2017-03-08T09:30:28.166Z,72.62
2017-03-08T09:31:38.486Z,72.62
2017-03-08T09:32:49.188Z,72.53
2017-03-08T09:33:59.479Z,72
2017-03-08T09:35:10.204Z,71.62
2017-03-08T09:36:20.533Z,71.43
2017-03-08T09:37:30.833Z,71.43
2017-03-08T09:38:40.730Z,71.43
2017-03-08T09:39:51.449Z,70.77
2017-03-08T09:41:01.773Z,68.79
2017-03-08T09:42:12.490Z,68.23
2017-03-08T09:43:23.220Z,67.81
2017-03-08T09:44:33.553Z,67.81
2017-03-08T09:45:44.305Z,68
2017-03-08T09:46:55.011Z,68.38
2017-03-08T09:48:05.713Z,68.95
2017-03-08T09:49:16.423Z,69.51
2017-03-08T09:50:27.121Z,70.36
2017-03-08T09:51:37.059Z,71.87
2017-03-08T09:52:47.770Z,72.91
2017-03-08T09:53:58.477Z,73.1
2017-03-08T09:55:08.795Z,73.38
2017-03-08T09:56:19.519Z,73.1
2017-03-08T09:57:29.820Z,73.13
2017-03-08T09:58:40.125Z,72.56
2017-03-08T09:59:50.433Z,72.94
2017-03-08T10:01:00.756Z,71.81
2017-03-08T10:02:11.447Z,72.19
2017-03-08T10:03:22.138Z,71.91
2017-03-08T10:04:32.862Z,71.15
2017-03-08T10:05:43.647Z,70.77
2017-03-08T10:06:53.948Z,70.39
2017-03-08T10:08:04.670Z,69.45
2017-03-08T10:09:15.382Z,67.38
2017-03-08T10:10:26.076Z,67.57
2017-03-08T10:11:36.505Z,66.71
2017-03-08T10:12:47.213Z,66.24
2017-03-08T10:13:57.927Z,65.77
2017-03-08T10:15:08.655Z,66.05
2017-03-08T10:16:19.376Z,66.05
2017-03-08T10:17:30.104Z,66.24
2017-03-08T10:18:40.802Z,66.15
2017-03-08T10:19:51.555Z,66.62
2017-03-08T10:21:02.284Z,66.87
2017-03-08T10:22:13.009Z,66.96
2017-03-08T10:23:23.738Z,67.15
2017-03-08T10:24:34.465Z,67.43
2017-03-08T10:25:44.843Z,67.53
2017-03-08T10:26:55.716Z,67.91
2017-03-08T10:28:06.035Z,68.47
2017-03-08T10:29:16.823Z,69.04
2017-03-08T10:30:27.527Z,69.23
2017-03-08T10:31:37.851Z,69.04
2017-03-08T10:32:47.781Z,69.23
2017-03-08T10:33:58.509Z,69.7
2017-03-08T10:35:09.279Z,70.07
2017-03-08T10:36:19.619Z,70.26
2017-03-08T10:37:30.320Z,69.98
2017-03-08T10:38:40.660Z,70.07
2017-03-08T10:39:51.418Z,70.07
2017-03-08T10:41:02.182Z,69.98
2017-03-08T10:42:12.919Z,70.07
2017-03-08T10:43:23.647Z,70.07
2017-03-08T10:44:34.337Z,70.26
2017-03-08T10:45:45.053Z,69.6
2017-03-08T10:46:55.750Z,69.6
2017-03-08T10:48:06.480Z,69.79
2017-03-08T10:49:17.210Z,68.85
2017-03-08T10:50:27.906Z,68.95
2017-03-08T10:51:38.196Z,69.04
2017-03-08T10:52:48.909Z,68.85
2017-03-08T10:53:59.603Z,68.95
2017-03-08T10:55:10.303Z,69.04
2017-03-08T10:56:21.057Z,68
2017-03-08T10:57:31.763Z,68.29
2017-03-08T10:58:42.454Z,67.43
2017-03-08T10:59:53.172Z,67.81
2017-03-08T11:01:03.536Z,68
2017-03-08T11:02:13.873Z,68.19
2017-03-08T11:03:24.596Z,69.17
2017-03-08T11:04:35.297Z,69.07
2017-03-08T11:05:45.614Z,68.13
2017-03-08T11:06:56.330Z,68.32
2017-03-08T11:08:07.045Z,68.23
2017-03-08T11:09:17.744Z,67.85
2017-03-08T11:10:28.057Z,67.6
2017-03-08T11:11:38.751Z,67.32
2017-03-08T11:12:49.463Z,66.97
2017-03-08T11:13:59.811Z,66.22
2017-03-08T11:15:10.524Z,65.87
2017-03-08T11:16:21.220Z,64.86
2017-03-08T11:17:31.539Z,64.48
2017-03-08T11:18:42.263Z,63.85
2017-03-08T11:19:52.976Z,62.56
2017-03-08T11:21:03.704Z,62.18
2017-03-08T11:22:14.401Z,61.27
2017-03-08T11:23:25.101Z,60.22
2017-03-08T11:24:35.443Z,59.22
2017-03-08T11:25:46.157Z,58.17
2017-03-08T11:26:56.478Z,58.01
2017-03-08T11:28:06.829Z,57.16
2017-03-08T11:29:17.128Z,55.29
2017-03-08T11:30:27.846Z,54.72
2017-03-08T11:31:37.759Z,54.56
2017-03-08T11:32:48.066Z,53.52
2017-03-08T11:33:58.790Z,53.83
2017-03-08T11:35:09.495Z,53.07
2017-03-08T11:36:20.291Z,52.31
2017-03-08T11:37:30.248Z,51.57
2017-03-08T11:38:40.590Z,50.91
2017-03-08T11:39:50.911Z,50.37
2017-03-08T11:41:01.657Z,50.18
2017-03-08T11:42:12.387Z,50.1
2017-03-08T11:43:23.084Z,49.15
2017-03-08T11:44:33.801Z,48.11
2017-03-08T11:45:44.146Z,48.42
2017-03-08T11:46:54.464Z,47.18
2017-03-08T11:48:05.182Z,47.66
2017-03-08T11:49:15.502Z,46.83
2017-03-08T11:50:26.211Z,46.44
2017-03-08T11:51:36.929Z,46.35
2017-03-08T11:52:47.645Z,45.7
2017-03-08T11:53:57.981Z,45.23
2017-03-08T11:55:08.707Z,45.51
2017-03-08T11:56:19.425Z,44.01
2017-03-08T11:57:30.141Z,43.44
2017-03-08T11:58:40.854Z,42.4
2017-03-08T11:59:51.573Z,43.25
2017-03-08T12:01:02.276Z,43.27
2017-03-08T12:02:13.035Z,42.8
2017-03-08T12:03:23.808Z,43.08
2017-03-08T12:04:34.115Z,42.15
2017-03-08T12:05:44.416Z,41.58
2017-03-08T12:06:55.150Z,42.17
2017-03-08T12:08:05.876Z,41.88
2017-03-08T12:09:16.611Z,41.03
2017-03-08T12:10:27.320Z,40.66
2017-03-08T12:11:38.057Z,40.86
2017-03-08T12:12:48.783Z,40.19
2017-03-08T12:13:59.102Z,40.49
2017-03-08T12:15:09.854Z,40.01
2017-03-08T12:16:20.579Z,35.74
2017-03-08T12:17:31.296Z,32.26
2017-03-08T12:18:41.613Z,33.37
2017-03-08T12:19:52.347Z,33.55
2017-03-08T12:21:02.669Z,36.68
2017-03-08T12:22:13.451Z,38.03
2017-03-08T12:23:24.172Z,38.22
2017-03-08T12:24:34.883Z,38.05
2017-03-08T12:25:45.597Z,38.64
2017-03-08T12:26:56.313Z,38.47
2017-03-08T12:28:07.033Z,37.82
2017-03-08T12:29:17.765Z,36.6
2017-03-08T12:30:28.105Z,36.98
2017-03-08T12:31:38.845Z,35.83
2017-03-08T12:32:49.573Z,35.37
2017-03-08T12:33:59.889Z,35.18
2017-03-08T12:35:10.618Z,34.8
2017-03-08T12:36:21.335Z,35.39
2017-03-08T12:37:32.074Z,34.34
2017-03-08T12:38:42.793Z,34.43
2017-03-08T12:39:53.120Z,34.06
2017-03-08T12:41:03.849Z,34.26
2017-03-08T12:42:14.585Z,34.45
2017-03-08T12:43:25.304Z,33.78
2017-03-08T12:44:36.028Z,34.28
2017-03-08T12:45:45.945Z,33.03
2017-03-08T12:46:56.673Z,33.03
2017-03-08T12:48:07.385Z,32.84
2017-03-08T12:49:17.710Z,32.18
2017-03-08T12:50:28.442Z,32.38
2017-03-08T12:51:38.761Z,31.42
2017-03-08T12:52:49.074Z,31.63
2017-03-08T12:53:59.789Z,30.96
2017-03-08T12:55:10.552Z,31.43
2017-03-08T12:56:21.266Z,30.57
2017-03-08T12:57:31.579Z,31.24
2017-03-08T12:58:42.326Z,31.43
2017-03-08T12:59:51.853Z,31.15
2017-03-08T13:01:02.593Z,30
2017-03-08T13:02:13.320Z,30
2017-03-08T13:03:24.063Z,30.67
2017-03-08T13:04:34.790Z,30.19
2017-03-08T13:05:45.124Z,29.9
2017-03-08T13:06:55.464Z,30.38
2017-03-08T13:08:06.202Z,30.76
2017-03-08T13:09:16.925Z,30.67
2017-03-08T13:10:27.647Z,30.27
2017-03-08T13:11:38.379Z,30.36
2017-03-08T13:12:48.698Z,29.71
2017-03-08T13:13:59.023Z,29.79
2017-03-08T13:15:09.759Z,29.97
2017-03-08T13:16:20.485Z,30.44
2017-03-08T13:17:31.205Z,30.35
2017-03-08T13:18:41.531Z,30.52
2017-03-08T13:19:52.270Z,31.27
2017-03-08T13:21:03.000Z,31.64
2017-03-08T13:22:13.713Z,31.55
2017-03-08T13:23:24.425Z,31.8
2017-03-08T13:24:35.162Z,32.36
2017-03-08T13:25:45.482Z,32.92
2017-03-08T13:26:55.808Z,33.18
2017-03-08T13:28:06.536Z,34.22
2017-03-08T13:29:17.259Z,34.48
2017-03-08T13:30:27.569Z,34.75
2017-03-08T13:31:38.308Z,35.52
2017-03-08T13:32:49.005Z,36.45
2017-03-08T13:33:59.747Z,37
2017-03-08T13:35:09.683Z,37.57
2017-03-08T13:36:20.387Z,38.03
2017-03-08T13:37:30.738Z,37.65
2017-03-08T13:38:41.448Z,37.93
2017-03-08T13:39:52.157Z,37.54
2017-03-08T13:41:02.864Z,37.61
2017-03-08T13:42:13.188Z,38.56
2017-03-08T13:43:23.894Z,38.64
2017-03-08T13:44:34.613Z,38.09
2017-03-08T13:45:44.547Z,38.07
2017-03-08T13:46:55.254Z,38.92
2017-03-08T13:48:05.969Z,39.4
2017-03-08T13:49:16.691Z,39.4
2017-03-08T13:50:27.391Z,39.68
2017-03-08T13:51:38.115Z,40.16
2017-03-08T13:52:48.830Z,40.16
2017-03-08T13:53:59.249Z,39.51
2017-03-08T13:55:09.558Z,39.13
2017-03-08T13:56:20.295Z,38.85
2017-03-08T13:57:31.009Z,38.75
2017-03-08T13:58:41.717Z,38.01
2017-03-08T13:59:52.429Z,37.82
2017-03-08T14:01:02.754Z,36.96
2017-03-08T14:02:13.464Z,37.25
2017-03-08T14:03:24.166Z,37.33
2017-03-08T14:04:34.872Z,37.8
2017-03-08T14:05:45.588Z,37.9
2017-03-08T14:06:56.311Z,37.54
2017-03-08T14:08:07.048Z,37.44
2017-03-08T14:09:17.772Z,37.73
2017-03-08T14:10:28.483Z,37.63
2017-03-08T14:11:38.802Z,36.4
2017-03-08T14:12:49.513Z,34.78
2017-03-08T14:13:59.817Z,35.05
2017-03-08T14:15:10.158Z,35.9
2017-03-08T14:16:20.882Z,37.59
2017-03-08T14:17:31.606Z,37.69
2017-03-08T14:18:42.308Z,37.78
2017-03-08T14:19:52.611Z,38.28
2017-03-08T14:21:03.330Z,38.56
2017-03-08T14:22:14.037Z,38.65
2017-03-08T14:23:24.359Z,38.46
2017-03-08T14:24:34.669Z,38.94
2017-03-08T14:25:44.983Z,39.23
2017-03-08T14:26:55.684Z,38.75
2017-03-08T14:28:06.024Z,39.3
2017-03-08T14:29:16.737Z,39.3
2017-03-08T14:30:27.456Z,38.45
2017-03-08T14:31:38.168Z,37.88
2017-03-08T14:32:48.892Z,38.73
2017-03-08T14:33:59.597Z,36.46
2017-03-08T14:35:09.924Z,37.19
2017-03-08T14:36:20.227Z,39.09
2017-03-08T14:37:30.935Z,39.18
2017-03-08T14:38:41.670Z,40.04
2017-03-08T14:39:52.404Z,39.95
2017-03-08T14:41:02.716Z,39.09
2017-03-08T14:42:13.434Z,39.09
2017-03-08T14:43:24.156Z,39.28
2017-03-08T14:44:34.469Z,39.09
2017-03-08T14:45:45.164Z,39.28
2017-03-08T14:46:55.478Z,39.28
2017-03-08T14:48:06.174Z,38.12
2017-03-08T14:49:16.886Z,39.26
2017-03-08T14:50:27.588Z,39.17
2017-03-08T14:51:37.885Z,38.98
2017-03-08T14:52:47.810Z,40.02
2017-03-08T14:53:58.129Z,41.06
2017-03-08T14:55:08.834Z,41.16
2017-03-08T14:56:19.554Z,40.69
2017-03-08T14:57:29.069Z,38.79
2017-03-08T14:58:39.405Z,38.5
2017-03-08T14:59:50.106Z,37.54
2017-03-08T15:01:00.433Z,37.82
2017-03-08T15:02:10.744Z,37.9
2017-03-08T15:03:21.443Z,38.56
2017-03-08T15:04:32.182Z,38.75
2017-03-08T15:05:42.904Z,38.82
2017-03-08T15:06:53.226Z,39.2
2017-03-08T15:08:03.927Z,39.68
2017-03-08T15:09:14.663Z,40.06
2017-03-08T15:10:25.408Z,41.09
2017-03-08T15:11:36.134Z,40.53
2017-03-08T15:12:46.449Z,41.27
2017-03-08T15:13:57.160Z,42.11